createdAt,value
2022-08-26T00:02:07.619Z,18.30
2022-08-26T00:04:35.222Z,18.30
2022-08-26T00:07:02.093Z,18.30
2022-08-26T00:09:29.157Z,18.30
2022-08-26T00:11:56.080Z,18.30
2022-08-26T00:14:31.012Z,18.20
2022-08-26T00:16:58.384Z,18.20
2022-08-26T00:19:25.402Z,18.20
2022-08-26T00:21:52.275Z,18.10
2022-08-26T00:24:21.742Z,18.00
2022-08-26T00:26:51.537Z,18.00
2022-08-26T00:29:18.992Z,18.00
2022-08-26T00:31:48.268Z,18.00
2022-08-26T00:34:16.605Z,18.10
2022-08-26T00:36:47.368Z,18.10
2022-08-26T00:39:16.191Z,18.10
2022-08-26T00:41:46.014Z,18.10
2022-08-26T00:44:15.014Z,18.00
2022-08-26T00:46:46.776Z,18.00
2022-08-26T00:49:19.779Z,18.00
2022-08-26T00:51:51.527Z,18.00
2022-08-26T00:54:21.359Z,18.00
2022-08-26T00:57:08.701Z,18.00
2022-08-26T00:59:46.901Z,18.00
2022-08-26T01:02:20.314Z,18.00
2022-08-26T01:04:56.495Z,17.90
2022-08-26T01:07:31.322Z,17.90
2022-08-26T01:10:01.104Z,17.80
2022-08-26T01:12:31.998Z,17.80
2022-08-26T01:14:59.165Z,17.70
2022-08-26T01:17:26.077Z,17.60
2022-08-26T01:20:00.067Z,17.60
2022-08-26T01:22:40.832Z,17.60
2022-08-26T01:25:10.650Z,17.50
2022-08-26T01:27:37.475Z,17.50
2022-08-26T01:30:07.952Z,17.50
2022-08-26T01:32:36.209Z,17.50
2022-08-26T01:35:07.015Z,17.40
2022-08-26T01:37:36.977Z,17.40
2022-08-26T01:40:08.293Z,17.50
2022-08-26T01:42:37.227Z,17.50
2022-08-26T01:45:13.170Z,17.50
2022-08-26T01:47:41.488Z,17.50
2022-08-26T01:50:15.676Z,17.50
2022-08-26T01:52:56.083Z,17.50
2022-08-26T01:55:32.124Z,17.50
2022-08-26T01:58:04.788Z,17.50
2022-08-26T02:00:35.811Z,17.50
2022-08-26T02:03:17.985Z,17.40
2022-08-26T02:06:04.455Z,17.40
2022-08-26T02:08:50.745Z,17.40
2022-08-26T02:11:20.584Z,17.40
2022-08-26T02:13:51.716Z,17.40
2022-08-26T02:16:22.703Z,17.50
2022-08-26T02:18:53.797Z,17.40
2022-08-26T02:21:24.915Z,17.40
2022-08-26T02:23:52.477Z,17.50
2022-08-26T02:26:27.140Z,17.40
2022-08-26T02:29:03.906Z,17.40
2022-08-26T02:31:33.680Z,17.40
2022-08-26T02:34:13.337Z,17.40
2022-08-26T02:36:42.622Z,17.40
2022-08-26T02:39:15.898Z,17.30
2022-08-26T02:41:46.895Z,17.40
2022-08-26T02:44:14.878Z,17.30
2022-08-26T02:46:44.501Z,17.30
2022-08-26T02:49:14.908Z,17.30
2022-08-26T02:51:46.665Z,17.20
2022-08-26T02:54:15.639Z,17.20
2022-08-26T02:56:42.975Z,17.20
2022-08-26T02:59:15.336Z,17.20
2022-08-26T03:01:48.282Z,17.20
2022-08-26T03:04:15.479Z,17.20
2022-08-26T03:06:42.616Z,17.20
2022-08-26T03:09:15.983Z,17.20
2022-08-26T03:11:46.209Z,17.20
2022-08-26T03:14:13.463Z,17.10
2022-08-26T03:16:40.226Z,17.10
2022-08-26T03:19:10.542Z,17.00
2022-08-26T03:21:38.757Z,17.00
2022-08-26T03:24:05.790Z,17.00
2022-08-26T03:26:32.731Z,17.00
2022-08-26T03:29:17.920Z,17.00
2022-08-26T03:31:46.877Z,17.00
2022-08-26T03:34:16.299Z,17.00
2022-08-26T03:36:43.314Z,16.90
2022-08-26T03:39:12.998Z,16.90
2022-08-26T03:41:45.097Z,16.80
2022-08-26T03:44:12.760Z,16.80
2022-08-26T03:46:39.818Z,16.80
2022-08-26T03:49:07.350Z,16.80
2022-08-26T03:51:38.816Z,16.80
2022-08-26T03:54:08.353Z,16.90
2022-08-26T03:56:36.537Z,16.80
2022-08-26T03:59:05.057Z,16.80
2022-08-26T04:01:36.713Z,16.80
2022-08-26T04:04:06.529Z,16.80
2022-08-26T04:06:37.184Z,16.80
2022-08-26T04:09:10.417Z,16.80
2022-08-26T04:11:39.581Z,16.80
2022-08-26T04:14:14.174Z,16.80
2022-08-26T04:16:45.045Z,16.70
2022-08-26T04:19:15.454Z,16.70
2022-08-26T04:21:42.390Z,16.70
2022-08-26T04:24:12.172Z,16.80
2022-08-26T04:26:42.695Z,16.80
2022-08-26T04:29:23.927Z,16.80
2022-08-26T04:31:55.211Z,16.80
2022-08-26T04:34:28.709Z,16.80
2022-08-26T04:36:56.150Z,16.80
2022-08-26T04:39:23.245Z,16.80
2022-08-26T04:41:53.073Z,16.80
2022-08-26T04:44:21.274Z,16.80
2022-08-26T04:46:48.351Z,16.80
2022-08-26T04:49:15.846Z,16.90
2022-08-26T04:51:45.332Z,17.00
2022-08-26T04:54:12.188Z,17.00
2022-08-26T04:56:41.904Z,17.00
2022-08-26T04:59:17.191Z,17.00
2022-08-26T05:01:47.856Z,17.00
2022-08-26T05:04:16.261Z,17.00
2022-08-26T05:06:45.519Z,17.00
2022-08-26T05:09:13.663Z,17.00
2022-08-26T05:11:48.452Z,17.10
2022-08-26T05:14:19.519Z,17.10
2022-08-26T05:16:47.953Z,17.10
2022-08-26T05:19:18.747Z,17.00
2022-08-26T05:21:47.111Z,17.10
2022-08-26T05:24:14.430Z,17.20
2022-08-26T05:26:41.300Z,17.20
2022-08-26T05:29:08.176Z,17.30
2022-08-26T05:31:35.610Z,17.40
2022-08-26T05:34:06.165Z,17.50
2022-08-26T05:36:35.344Z,17.60
2022-08-26T05:39:08.223Z,17.80
2022-08-26T05:41:40.714Z,17.90
2022-08-26T05:44:16.370Z,18.10
2022-08-26T05:46:44.677Z,18.10
2022-08-26T05:49:14.223Z,18.30
2022-08-26T05:51:47.551Z,18.40
2022-08-26T05:54:21.957Z,18.40
2022-08-26T05:56:49.234Z,18.50
2022-08-26T05:59:21.254Z,18.60
2022-08-26T06:01:52.214Z,18.80
2022-08-26T06:04:20.127Z,18.90
2022-08-26T06:06:49.468Z,19.00
2022-08-26T06:09:17.461Z,19.20
2022-08-26T06:11:45.062Z,19.40
2022-08-26T06:14:12.191Z,19.60
2022-08-26T06:16:41.446Z,19.80
2022-08-26T06:19:12.487Z,20.00
2022-08-26T06:21:44.036Z,20.10
2022-08-26T06:24:32.182Z,20.10
2022-08-26T06:27:08.259Z,20.30
2022-08-26T06:29:36.251Z,20.40
2022-08-26T06:32:08.782Z,20.40
2022-08-26T06:34:35.838Z,20.50
2022-08-26T06:37:03.412Z,20.60
2022-08-26T06:39:31.566Z,20.70
2022-08-26T06:42:00.354Z,20.70
2022-08-26T06:44:27.441Z,20.80
2022-08-26T06:46:57.213Z,20.90
2022-08-26T06:49:27.240Z,21.00
2022-08-26T06:52:00.196Z,21.10
2022-08-26T06:54:31.699Z,21.20
2022-08-26T06:56:59.029Z,21.20
2022-08-26T06:59:26.026Z,21.30
2022-08-26T07:01:55.808Z,21.40
2022-08-26T07:04:24.491Z,21.40
2022-08-26T07:06:54.817Z,21.50
2022-08-26T07:09:28.412Z,21.60
2022-08-26T07:11:56.341Z,21.70
2022-08-26T07:14:24.916Z,21.70
2022-08-26T07:16:55.754Z,21.70
2022-08-26T07:19:29.093Z,21.70
2022-08-26T07:22:03.397Z,21.80
2022-08-26T07:24:31.718Z,21.80
2022-08-26T07:27:05.667Z,21.90
2022-08-26T07:29:33.524Z,22.10
2022-08-26T07:32:03.321Z,22.20
2022-08-26T07:34:33.340Z,22.20
2022-08-26T07:37:02.663Z,22.40
2022-08-26T07:39:31.456Z,22.50
2022-08-26T07:42:07.721Z,22.60
2022-08-26T07:44:37.142Z,22.70
2022-08-26T07:47:04.121Z,22.90
2022-08-26T07:49:53.540Z,23.00
2022-08-26T07:52:25.988Z,23.10
2022-08-26T07:54:59.657Z,23.20
2022-08-26T07:57:29.430Z,23.30
2022-08-26T07:59:56.832Z,23.30
2022-08-26T08:02:24.971Z,23.40
2022-08-26T08:04:52.636Z,23.50
2022-08-26T08:07:19.445Z,23.60
2022-08-26T08:09:49.435Z,23.50
2022-08-26T08:12:21.514Z,23.50
2022-08-26T08:14:51.432Z,23.60
2022-08-26T08:17:20.375Z,23.70
2022-08-26T08:19:48.010Z,23.80
2022-08-26T08:22:23.530Z,23.90
2022-08-26T08:24:53.058Z,24.00
2022-08-26T08:27:23.728Z,24.00
2022-08-26T08:29:54.139Z,24.00
2022-08-26T08:32:25.718Z,24.00
2022-08-26T08:34:52.878Z,24.20
2022-08-26T08:37:19.750Z,24.40
2022-08-26T08:39:46.532Z,24.60
2022-08-26T08:43:07.148Z,24.80
2022-08-26T08:45:40.942Z,25.10
2022-08-26T08:48:19.710Z,25.30
2022-08-26T08:51:07.868Z,25.30
2022-08-26T08:53:37.476Z,25.30
2022-08-26T08:56:24.335Z,25.30
2022-08-26T08:59:18.192Z,25.20
2022-08-26T09:02:23.063Z,25.30
2022-08-26T09:04:58.790Z,25.30
2022-08-26T09:07:36.524Z,25.40
2022-08-26T09:10:29.031Z,25.50
2022-08-26T09:12:56.629Z,25.50
2022-08-26T09:15:33.186Z,25.50
2022-08-26T09:18:17.076Z,25.50
2022-08-26T09:20:53.248Z,25.60
2022-08-26T09:23:20.197Z,25.60
2022-08-26T09:26:10.023Z,25.60
2022-08-26T09:28:45.694Z,25.70
2022-08-26T09:31:36.365Z,25.80
2022-08-26T09:34:19.029Z,25.80
2022-08-26T09:36:56.017Z,25.80
2022-08-26T09:39:33.684Z,25.90
2022-08-26T09:42:25.371Z,26.00
2022-08-26T09:44:56.515Z,26.10
2022-08-26T09:47:28.396Z,26.20
2022-08-26T09:50:29.361Z,26.40
2022-08-26T09:53:21.119Z,26.50
2022-08-26T09:56:13.438Z,26.70
2022-08-26T09:58:45.489Z,26.70
2022-08-26T10:01:30.135Z,26.80
2022-08-26T10:04:24.719Z,26.90
2022-08-26T10:07:04.042Z,26.70
2022-08-26T10:09:38.919Z,26.70
2022-08-26T10:12:15.340Z,26.60
2022-08-26T10:14:48.501Z,26.50
2022-08-26T10:17:39.443Z,26.50
2022-08-26T10:20:22.703Z,26.50
2022-08-26T10:23:07.337Z,26.50
2022-08-26T10:26:00.225Z,26.60
2022-08-26T10:28:35.716Z,26.60
2022-08-26T10:31:30.183Z,26.70
2022-08-26T10:34:07.573Z,26.80
2022-08-26T10:37:13.711Z,26.90
2022-08-26T10:39:59.298Z,27.00
2022-08-26T10:42:29.180Z,27.20
2022-08-26T10:45:02.181Z,27.40
2022-08-26T10:47:38.494Z,27.50
2022-08-26T10:50:06.027Z,27.70
2022-08-26T10:52:36.375Z,27.90
2022-08-26T10:55:16.251Z,28.00
2022-08-26T10:57:55.176Z,28.30
2022-08-26T11:01:02.477Z,28.50
2022-08-26T11:04:04.103Z,28.60
2022-08-26T11:06:31.701Z,28.90
2022-08-26T11:09:01.491Z,29.10
2022-08-26T11:11:40.211Z,29.20
2022-08-26T11:14:28.414Z,29.40
2022-08-26T11:17:00.125Z,29.40
2022-08-26T11:19:57.045Z,29.50
2022-08-26T11:22:38.115Z,29.60
2022-08-26T11:25:20.053Z,29.60
2022-08-26T11:27:50.740Z,30.00
2022-08-26T11:30:19.609Z,30.10
2022-08-26T11:32:58.766Z,30.20
2022-08-26T11:35:34.570Z,30.30
2022-08-26T11:38:18.406Z,30.40
2022-08-26T11:40:55.375Z,30.00
2022-08-26T11:43:30.303Z,29.90
2022-08-26T11:46:30.364Z,29.80
2022-08-26T11:49:07.512Z,29.70
2022-08-26T11:51:40.470Z,29.90
2022-08-26T11:54:17.958Z,30.00
2022-08-26T11:56:59.591Z,29.90
2022-08-26T12:02:18.125Z,30.00
2022-08-26T12:04:48.863Z,30.00
2022-08-26T12:07:17.196Z,29.90
2022-08-26T12:09:57.166Z,29.80
2022-08-26T12:12:35.154Z,29.70
2022-08-26T12:15:13.759Z,29.70
2022-08-26T12:17:49.428Z,29.60
2022-08-26T12:21:08.197Z,29.30
2022-08-26T12:23:35.169Z,29.00
2022-08-26T12:26:08.080Z,28.70
2022-08-26T12:29:12.701Z,28.60
2022-08-26T12:31:48.235Z,28.50
2022-08-26T12:34:19.458Z,26.80
2022-08-26T12:36:50.175Z,24.80
2022-08-26T12:39:31.072Z,23.80
2022-08-26T12:42:03.049Z,23.40
2022-08-26T12:44:54.726Z,23.40
2022-08-26T12:47:33.876Z,23.10
2022-08-26T12:50:20.521Z,22.90
2022-08-26T12:53:09.190Z,22.80
2022-08-26T12:55:38.765Z,22.50
2022-08-26T12:58:29.857Z,22.50
2022-08-26T13:00:56.765Z,22.50
2022-08-26T13:03:38.636Z,22.40
2022-08-26T13:06:25.891Z,22.30
2022-08-26T13:08:52.887Z,22.30
2022-08-26T13:11:26.815Z,22.30
2022-08-26T13:14:07.136Z,22.30
2022-08-26T13:16:37.691Z,22.40
2022-08-26T13:19:10.361Z,22.50
2022-08-26T13:21:58.401Z,22.50
2022-08-26T13:24:36.711Z,22.40
2022-08-26T13:27:05.408Z,22.40
2022-08-26T13:29:32.239Z,22.40
2022-08-26T13:31:59.395Z,22.40
2022-08-26T13:34:26.874Z,22.50
2022-08-26T13:36:55.204Z,22.60
2022-08-26T13:39:22.785Z,22.70
2022-08-26T13:41:49.963Z,22.80
2022-08-26T13:44:19.512Z,22.70
2022-08-26T13:46:46.321Z,22.70
2022-08-26T13:49:15.655Z,22.80
2022-08-26T13:51:42.547Z,22.90
2022-08-26T13:54:09.479Z,22.90
2022-08-26T13:56:37.439Z,23.00
2022-08-26T13:59:06.994Z,23.20
2022-08-26T14:01:35.416Z,23.30
2022-08-26T14:04:04.900Z,23.30
2022-08-26T14:06:31.802Z,23.30
2022-08-26T14:08:58.608Z,23.40
2022-08-26T14:11:25.417Z,23.50
2022-08-26T14:13:54.395Z,23.60
2022-08-26T14:16:29.078Z,23.80
2022-08-26T14:18:56.097Z,23.80
2022-08-26T14:21:26.332Z,23.80
2022-08-26T14:23:53.081Z,23.90
2022-08-26T14:26:29.276Z,23.90
2022-08-26T14:28:59.728Z,24.10
2022-08-26T14:31:29.211Z,24.10
2022-08-26T14:34:03.813Z,24.20
2022-08-26T14:36:33.840Z,24.40
2022-08-26T14:39:13.174Z,24.50
2022-08-26T14:41:53.960Z,24.70
2022-08-26T14:44:24.441Z,24.80
2022-08-26T14:46:54.684Z,25.00
2022-08-26T14:49:23.377Z,25.10
2022-08-26T14:51:50.286Z,25.10
2022-08-26T14:54:18.342Z,25.20
2022-08-26T14:56:45.031Z,25.60
2022-08-26T14:59:13.550Z,26.10
2022-08-26T15:01:40.583Z,26.20
2022-08-26T15:04:07.515Z,26.40
2022-08-26T15:06:41.956Z,26.50
2022-08-26T15:09:08.982Z,26.40
2022-08-26T15:11:36.022Z,26.20
2022-08-26T15:14:03.447Z,26.20
2022-08-26T15:16:33.388Z,26.30
2022-08-26T15:19:04.228Z,26.30
2022-08-26T15:21:32.849Z,26.50
2022-08-26T15:24:00.692Z,26.60
2022-08-26T15:26:28.624Z,26.60
2022-08-26T15:28:55.424Z,26.60
2022-08-26T15:31:30.923Z,26.60
2022-08-26T15:34:04.800Z,26.60
2022-08-26T15:36:32.706Z,26.60
2022-08-26T15:39:00.971Z,26.70
2022-08-26T15:41:30.284Z,26.60
2022-08-26T15:44:04.872Z,26.60
2022-08-26T15:46:32.186Z,26.60
2022-08-26T15:48:59.385Z,26.60
2022-08-26T15:51:35.950Z,26.40
2022-08-26T15:54:17.100Z,26.30
2022-08-26T15:56:45.419Z,26.10
2022-08-26T15:59:15.302Z,26.00
2022-08-26T16:01:43.344Z,25.80
2022-08-26T16:04:11.389Z,25.70
2022-08-26T16:06:40.480Z,25.60
2022-08-26T16:09:09.975Z,25.30
2022-08-26T16:11:37.690Z,25.20
2022-08-26T16:14:10.972Z,25.00
2022-08-26T16:16:39.365Z,24.90
2022-08-26T16:19:07.889Z,24.80
2022-08-26T16:21:35.353Z,24.80
2022-08-26T16:24:03.284Z,24.70
2022-08-26T16:26:33.060Z,24.60
2022-08-26T16:29:02.624Z,24.50
2022-08-26T16:31:29.475Z,24.50
2022-08-26T16:33:56.496Z,24.40
2022-08-26T16:36:23.556Z,24.30
2022-08-26T16:38:56.249Z,24.10
2022-08-26T16:41:25.298Z,24.00
2022-08-26T16:43:52.289Z,23.90
2022-08-26T16:46:25.070Z,23.80
2022-08-26T16:48:56.366Z,23.80
2022-08-26T16:51:26.851Z,23.70
2022-08-26T16:53:57.401Z,23.60
2022-08-26T16:56:33.576Z,23.50
2022-08-26T16:59:02.846Z,23.30
2022-08-26T17:01:32.072Z,23.30
2022-08-26T17:03:58.916Z,23.20
2022-08-26T17:06:28.118Z,23.10
2022-08-26T17:08:57.225Z,22.90
2022-08-26T17:11:24.120Z,22.90
2022-08-26T17:13:50.855Z,23.20
2022-08-26T17:16:23.279Z,23.30
2022-08-26T17:18:53.088Z,23.40
2022-08-26T17:21:19.843Z,23.40
2022-08-26T17:23:46.603Z,23.50
2022-08-26T17:26:13.588Z,23.40
2022-08-26T17:28:43.042Z,23.40
2022-08-26T17:31:13.298Z,23.40
2022-08-26T17:33:42.820Z,23.30
2022-08-26T17:36:10.398Z,23.20
2022-08-26T17:38:38.077Z,23.10
2022-08-26T17:41:16.756Z,23.00
2022-08-26T17:43:43.576Z,23.00
2022-08-26T17:46:11.630Z,22.80
2022-08-26T17:48:40.352Z,22.70
2022-08-26T17:51:12.532Z,22.60
2022-08-26T17:53:42.356Z,22.50
2022-08-26T17:56:11.300Z,22.40
2022-08-26T17:58:38.879Z,22.30
2022-08-26T18:01:09.556Z,22.20
2022-08-26T18:03:36.456Z,22.10
2022-08-26T18:06:09.031Z,22.00
2022-08-26T18:08:36.747Z,22.00
2022-08-26T18:11:09.136Z,21.90
2022-08-26T18:13:36.132Z,21.90
2022-08-26T18:16:05.830Z,21.90
2022-08-26T18:18:34.297Z,21.90
2022-08-26T18:21:03.637Z,21.70
2022-08-26T18:23:31.329Z,21.70
2022-08-26T18:25:58.383Z,21.60
2022-08-26T18:28:25.239Z,21.60
2022-08-26T18:30:52.050Z,21.60
2022-08-26T18:33:22.198Z,21.60
2022-08-26T18:35:48.929Z,21.60
2022-08-26T18:38:16.360Z,21.60
2022-08-26T18:40:45.408Z,21.60
2022-08-26T18:43:12.237Z,21.60
2022-08-26T18:45:41.525Z,21.60
2022-08-26T18:48:08.645Z,21.60
2022-08-26T18:50:40.979Z,21.60
2022-08-26T18:53:08.372Z,21.60
2022-08-26T18:55:40.024Z,21.50
2022-08-26T18:58:06.851Z,21.40
2022-08-26T19:00:35.694Z,21.40
2022-08-26T19:03:02.538Z,21.40
2022-08-26T19:05:31.568Z,21.30
2022-08-26T19:07:58.447Z,21.20
2022-08-26T19:10:27.656Z,21.10
2022-08-26T19:12:56.324Z,21.00
2022-08-26T19:15:25.476Z,21.00
2022-08-26T19:17:56.328Z,21.00
2022-08-26T19:20:25.993Z,21.10
2022-08-26T19:22:52.830Z,21.00
2022-08-26T19:25:20.187Z,21.00
2022-08-26T19:27:46.931Z,20.90
2022-08-26T19:30:13.850Z,20.90
2022-08-26T19:32:45.374Z,20.70
2022-08-26T19:35:14.955Z,20.50
2022-08-26T19:37:41.749Z,20.50
2022-08-26T19:40:08.953Z,20.40
2022-08-26T19:42:35.839Z,20.40
2022-08-26T19:45:24.696Z,20.30
2022-08-26T19:47:57.060Z,20.20
2022-08-26T19:50:29.943Z,20.10
2022-08-26T19:53:04.097Z,20.20
2022-08-26T19:55:31.633Z,20.20
2022-08-26T19:57:58.526Z,20.10
2022-08-26T20:00:29.071Z,20.10
2022-08-26T20:02:56.442Z,20.10
2022-08-26T20:05:27.127Z,20.00
2022-08-26T20:07:54.388Z,20.00
2022-08-26T20:10:24.704Z,20.00
2022-08-26T20:12:51.918Z,20.10
2022-08-26T20:15:23.073Z,20.10
2022-08-26T20:17:49.810Z,20.10
2022-08-26T20:20:35.629Z,20.00
2022-08-26T20:23:04.325Z,20.00
2022-08-26T20:25:32.701Z,19.90
2022-08-26T20:28:00.308Z,19.90
2022-08-26T20:30:28.365Z,19.80
2022-08-26T20:32:58.409Z,19.80
2022-08-26T20:35:25.147Z,19.80
2022-08-26T20:37:51.961Z,19.70
2022-08-26T20:40:21.140Z,19.70
2022-08-26T20:42:47.956Z,19.70
2022-08-26T20:45:14.727Z,19.70
2022-08-26T20:47:42.698Z,19.60
2022-08-26T20:50:09.717Z,19.60
2022-08-26T20:52:36.514Z,19.70
2022-08-26T20:55:05.701Z,19.70
2022-08-26T20:57:35.038Z,19.70
2022-08-26T21:00:04.611Z,19.50
2022-08-26T21:02:31.337Z,19.50
2022-08-26T21:04:58.165Z,19.50
2022-08-26T21:07:24.929Z,19.50
2022-08-26T21:09:51.699Z,19.50
2022-08-26T21:12:20.967Z,19.50
2022-08-26T21:14:49.732Z,19.50
2022-08-26T21:17:16.675Z,19.40
2022-08-26T21:19:45.881Z,19.30
2022-08-26T21:22:14.736Z,19.30
2022-08-26T21:24:43.647Z,19.30
2022-08-26T21:27:10.616Z,19.40
2022-08-26T21:29:37.507Z,19.40
2022-08-26T21:32:05.255Z,19.40
2022-08-26T21:34:32.081Z,19.30
2022-08-26T21:36:59.004Z,19.30
2022-08-26T21:39:25.912Z,19.20
2022-08-26T21:41:52.665Z,19.20
2022-08-26T21:44:22.009Z,19.30
2022-08-26T21:46:50.949Z,19.30
2022-08-26T21:49:17.725Z,19.20
2022-08-26T21:51:47.268Z,19.20
2022-08-26T21:54:18.217Z,19.20
2022-08-26T21:56:47.028Z,19.10
2022-08-26T21:59:16.496Z,19.10
2022-08-26T22:01:43.383Z,19.00
2022-08-26T22:04:10.613Z,19.00
2022-08-26T22:06:43.843Z,19.00
2022-08-26T22:09:11.786Z,18.90
2022-08-26T22:11:38.823Z,18.90
2022-08-26T22:14:05.913Z,18.80
2022-08-26T22:16:32.708Z,18.80
2022-08-26T22:19:02.016Z,18.80
2022-08-26T22:21:28.819Z,18.70
2022-08-26T22:23:58.080Z,18.70
2022-08-26T22:26:30.147Z,18.70
2022-08-26T22:28:59.492Z,18.60
2022-08-26T22:31:36.970Z,18.60
2022-08-26T22:34:10.336Z,18.60
2022-08-26T22:36:43.787Z,18.60
2022-08-26T22:39:12.650Z,18.60
2022-08-26T22:41:40.040Z,18.60
2022-08-26T22:44:07.456Z,18.50
2022-08-26T22:46:38.538Z,18.60
2022-08-26T22:49:06.443Z,18.80
2022-08-26T22:51:35.714Z,18.80
2022-08-26T22:54:05.725Z,18.80
2022-08-26T22:56:32.518Z,18.80
2022-08-26T22:59:01.458Z,18.80
2022-08-26T23:01:28.518Z,18.80
2022-08-26T23:03:55.278Z,18.80
2022-08-26T23:06:24.340Z,18.70
2022-08-26T23:08:51.068Z,18.70
2022-08-26T23:11:20.204Z,18.70
2022-08-26T23:13:49.063Z,18.70
2022-08-26T23:16:15.923Z,18.70
2022-08-26T23:18:43.525Z,18.70
2022-08-26T23:21:10.713Z,18.70
2022-08-26T23:23:38.439Z,18.70
2022-08-26T23:26:07.661Z,18.70
2022-08-26T23:28:37.730Z,18.60
2022-08-26T23:31:05.382Z,18.70
2022-08-26T23:33:55.623Z,18.80
2022-08-26T23:36:26.572Z,18.80
2022-08-26T23:38:55.499Z,18.80
2022-08-26T23:41:23.384Z,18.70
2022-08-26T23:43:53.181Z,18.70
2022-08-26T23:46:20.298Z,18.60
2022-08-26T23:48:47.222Z,18.60
2022-08-26T23:51:32.896Z,18.50
2022-08-26T23:54:02.130Z,18.60
2022-08-26T23:56:29.119Z,18.60
2022-08-26T23:58:56.524Z,18.60
